sensor_id;sensor_type;location;lat;lon;timestamp;temperature;humidity
48019;DHT22;33786;48.690;9.562;2022-11-20T00:01:11;6.50;99.90
48019;DHT22;33786;48.690;9.562;2022-11-20T00:03:39;6.40;99.90
48019;DHT22;33786;48.690;9.562;2022-11-20T00:06:08;6.30;99.90
48019;DHT22;33786;48.690;9.562;2022-11-20T00:08:35;6.40;99.90
48019;DHT22;33786;48.690;9.562;2022-11-20T00:11:24;6.30;99.90
48019;DHT22;33786;48.690;9.562;2022-11-20T00:13:50;6.20;99.90
48019;DHT22;33786;48.690;9.562;2022-11-20T00:16:21;6.10;99.90
48019;DHT22;33786;48.690;9.562;2022-11-20T00:18:48;6.10;99.90
48019;DHT22;33786;48.690;9.562;2022-11-20T00:21:16;6.00;99.90
48019;DHT22;33786;48.690;9.562;2022-11-20T00:23:43;5.90;99.90
48019;DHT22;33786;48.690;9.562;2022-11-20T00:26:10;5.80;99.90
48019;DHT22;33786;48.690;9.562;2022-11-20T00:28:37;5.80;99.90
48019;DHT22;33786;48.690;9.562;2022-11-20T00:31:09;5.70;99.90
48019;DHT22;33786;48.690;9.562;2022-11-20T00:33:36;5.60;99.90
48019;DHT22;33786;48.690;9.562;2022-11-20T00:36:04;5.50;99.90
48019;DHT22;33786;48.690;9.562;2022-11-20T00:38:31;5.40;99.90
48019;DHT22;33786;48.690;9.562;2022-11-20T00:41:02;5.30;99.90
48019;DHT22;33786;48.690;9.562;2022-11-20T00:43:30;5.20;99.90
48019;DHT22;33786;48.690;9.562;2022-11-20T00:46:00;5.20;99.90
48019;DHT22;33786;48.690;9.562;2022-11-20T00:48:27;5.10;99.90
48019;DHT22;33786;48.690;9.562;2022-11-20T00:50:54;5.00;99.90
48019;DHT22;33786;48.690;9.562;2022-11-20T00:53:21;5.00;99.90
48019;DHT22;33786;48.690;9.562;2022-11-20T00:55:54;4.90;99.90
48019;DHT22;33786;48.690;9.562;2022-11-20T00:58:21;4.90;99.90
48019;DHT22;33786;48.690;9.562;2022-11-20T01:00:48;4.90;99.90
48019;DHT22;33786;48.690;9.562;2022-11-20T01:03:18;4.80;99.90
48019;DHT22;33786;48.690;9.562;2022-11-20T01:05:52;4.80;99.90
48019;DHT22;33786;48.690;9.562;2022-11-20T01:08:19;4.80;99.90
48019;DHT22;33786;48.690;9.562;2022-11-20T01:10:45;4.80;99.90
48019;DHT22;33786;48.690;9.562;2022-11-20T01:13:12;4.80;99.90
48019;DHT22;33786;48.690;9.562;2022-11-20T01:16:01;4.70;99.90
48019;DHT22;33786;48.690;9.562;2022-11-20T01:18:29;4.80;99.90
48019;DHT22;33786;48.690;9.562;2022-11-20T01:20:55;4.80;99.90
48019;DHT22;33786;48.690;9.562;2022-11-20T01:23:26;4.80;99.90
48019;DHT22;33786;48.690;9.562;2022-11-20T01:25:52;4.80;99.90
48019;DHT22;33786;48.690;9.562;2022-11-20T01:28:19;4.90;99.90
48019;DHT22;33786;48.690;9.562;2022-11-20T01:30:46;4.90;99.90
48019;DHT22;33786;48.690;9.562;2022-11-20T01:33:12;5.00;99.90
48019;DHT22;33786;48.690;9.562;2022-11-20T01:35:39;4.90;99.90
48019;DHT22;33786;48.690;9.562;2022-11-20T01:38:06;4.90;99.90
48019;DHT22;33786;48.690;9.562;2022-11-20T01:40:32;4.80;99.90
48019;DHT22;33786;48.690;9.562;2022-11-20T01:43:13;4.90;99.90
48019;DHT22;33786;48.690;9.562;2022-11-20T01:45:56;4.90;99.90
48019;DHT22;33786;48.690;9.562;2022-11-20T01:48:23;4.90;99.90
48019;DHT22;33786;48.690;9.562;2022-11-20T01:50:51;4.90;99.90
48019;DHT22;33786;48.690;9.562;2022-11-20T01:53:20;5.00;99.90
48019;DHT22;33786;48.690;9.562;2022-11-20T01:55:51;5.00;99.90
48019;DHT22;33786;48.690;9.562;2022-11-20T01:58:20;5.00;99.90
48019;DHT22;33786;48.690;9.562;2022-11-20T02:00:48;5.10;99.90
48019;DHT22;33786;48.690;9.562;2022-11-20T02:03:15;5.00;99.90
48019;DHT22;33786;48.690;9.562;2022-11-20T02:05:56;5.00;99.90
48019;DHT22;33786;48.690;9.562;2022-11-20T02:08:23;5.00;99.90
48019;DHT22;33786;48.690;9.562;2022-11-20T02:10:50;5.00;99.90
48019;DHT22;33786;48.690;9.562;2022-11-20T02:13:17;5.00;99.90
48019;DHT22;33786;48.690;9.562;2022-11-20T02:16:02;5.00;99.90
48019;DHT22;33786;48.690;9.562;2022-11-20T02:18:29;5.00;99.90
48019;DHT22;33786;48.690;9.562;2022-11-20T02:20:59;4.90;99.90
48019;DHT22;33786;48.690;9.562;2022-11-20T02:25:57;4.90;99.90
48019;DHT22;33786;48.690;9.562;2022-11-20T02:28:24;4.90;99.90
48019;DHT22;33786;48.690;9.562;2022-11-20T02:30:51;4.90;99.90
48019;DHT22;33786;48.690;9.562;2022-11-20T02:33:17;4.90;99.90
48019;DHT22;33786;48.690;9.562;2022-11-20T02:35:45;4.90;99.90
48019;DHT22;33786;48.690;9.562;2022-11-20T02:38:12;4.90;99.90
48019;DHT22;33786;48.690;9.562;2022-11-20T02:40:39;4.90;99.90
48019;DHT22;33786;48.690;9.562;2022-11-20T02:43:06;4.80;99.90
48019;DHT22;33786;48.690;9.562;2022-11-20T02:45:33;4.80;99.90
48019;DHT22;33786;48.690;9.562;2022-11-20T02:48:00;4.80;99.90
48019;DHT22;33786;48.690;9.562;2022-11-20T02:50:26;4.70;99.90
48019;DHT22;33786;48.690;9.562;2022-11-20T02:52:53;4.70;99.90
48019;DHT22;33786;48.690;9.562;2022-11-20T02:55:19;4.70;99.90
48019;DHT22;33786;48.690;9.562;2022-11-20T02:57:46;4.80;99.90
48019;DHT22;33786;48.690;9.562;2022-11-20T03:00:13;4.70;99.90
48019;DHT22;33786;48.690;9.562;2022-11-20T03:02:40;4.70;99.90
48019;DHT22;33786;48.690;9.562;2022-11-20T03:05:06;4.70;99.90
48019;DHT22;33786;48.690;9.562;2022-11-20T03:07:33;4.60;99.90
48019;DHT22;33786;48.690;9.562;2022-11-20T03:10:00;4.60;99.90
48019;DHT22;33786;48.690;9.562;2022-11-20T03:12:26;4.60;99.90
48019;DHT22;33786;48.690;9.562;2022-11-20T03:14:53;4.70;99.90
48019;DHT22;33786;48.690;9.562;2022-11-20T03:17:20;4.70;99.90
48019;DHT22;33786;48.690;9.562;2022-11-20T03:19:46;4.70;99.90
48019;DHT22;33786;48.690;9.562;2022-11-20T03:22:13;4.80;99.90
48019;DHT22;33786;48.690;9.562;2022-11-20T03:24:40;4.80;99.90
48019;DHT22;33786;48.690;9.562;2022-11-20T03:27:07;4.90;99.90
48019;DHT22;33786;48.690;9.562;2022-11-20T03:29:34;4.90;99.90
48019;DHT22;33786;48.690;9.562;2022-11-20T03:32:01;4.90;99.90
48019;DHT22;33786;48.690;9.562;2022-11-20T03:34:28;5.00;99.90
48019;DHT22;33786;48.690;9.562;2022-11-20T03:36:54;5.00;99.90
48019;DHT22;33786;48.690;9.562;2022-11-20T03:39:21;5.10;99.90
48019;DHT22;33786;48.690;9.562;2022-11-20T03:41:48;5.10;99.90
48019;DHT22;33786;48.690;9.562;2022-11-20T03:44:15;5.10;99.90
48019;DHT22;33786;48.690;9.562;2022-11-20T03:46:41;5.20;99.90
48019;DHT22;33786;48.690;9.562;2022-11-20T03:49:08;5.30;99.90
48019;DHT22;33786;48.690;9.562;2022-11-20T03:51:35;5.30;99.90
48019;DHT22;33786;48.690;9.562;2022-11-20T03:54:03;5.30;99.90
48019;DHT22;33786;48.690;9.562;2022-11-20T03:56:31;5.40;99.90
48019;DHT22;33786;48.690;9.562;2022-11-20T03:58:58;5.40;99.90
48019;DHT22;33786;48.690;9.562;2022-11-20T04:01:26;5.30;99.90
48019;DHT22;33786;48.690;9.562;2022-11-20T04:03:53;5.40;99.90
48019;DHT22;33786;48.690;9.562;2022-11-20T04:06:28;5.40;99.90
48019;DHT22;33786;48.690;9.562;2022-11-20T04:08:56;5.30;99.90
48019;DHT22;33786;48.690;9.562;2022-11-20T04:11:25;5.30;99.90
48019;DHT22;33786;48.690;9.562;2022-11-20T04:13:53;5.30;99.90
48019;DHT22;33786;48.690;9.562;2022-11-20T04:16:24;5.30;99.90
48019;DHT22;33786;48.690;9.562;2022-11-20T04:18:54;5.30;99.90
48019;DHT22;33786;48.690;9.562;2022-11-20T04:21:22;5.30;99.90
48019;DHT22;33786;48.690;9.562;2022-11-20T04:23:49;5.30;99.90
48019;DHT22;33786;48.690;9.562;2022-11-20T04:26:16;5.30;99.90
48019;DHT22;33786;48.690;9.562;2022-11-20T04:28:43;5.40;99.90
48019;DHT22;33786;48.690;9.562;2022-11-20T04:31:10;5.40;99.90
48019;DHT22;33786;48.690;9.562;2022-11-20T04:33:37;5.40;99.90
48019;DHT22;33786;48.690;9.562;2022-11-20T04:36:06;5.40;99.90
48019;DHT22;33786;48.690;9.562;2022-11-20T04:38:33;5.50;99.90
48019;DHT22;33786;48.690;9.562;2022-11-20T04:41:00;5.40;99.90
48019;DHT22;33786;48.690;9.562;2022-11-20T04:43:27;5.40;99.90
48019;DHT22;33786;48.690;9.562;2022-11-20T04:45:54;5.50;99.90
48019;DHT22;33786;48.690;9.562;2022-11-20T04:48:22;5.50;99.90
48019;DHT22;33786;48.690;9.562;2022-11-20T04:50:49;5.50;99.90
48019;DHT22;33786;48.690;9.562;2022-11-20T04:53:15;5.50;99.90
48019;DHT22;33786;48.690;9.562;2022-11-20T04:55:42;5.50;99.90
48019;DHT22;33786;48.690;9.562;2022-11-20T04:58:09;5.50;99.90
48019;DHT22;33786;48.690;9.562;2022-11-20T05:00:36;5.50;99.90
48019;DHT22;33786;48.690;9.562;2022-11-20T05:03:02;5.50;99.90
48019;DHT22;33786;48.690;9.562;2022-11-20T05:05:29;5.60;99.90
48019;DHT22;33786;48.690;9.562;2022-11-20T05:07:56;5.60;99.90
48019;DHT22;33786;48.690;9.562;2022-11-20T05:10:26;5.70;99.90
48019;DHT22;33786;48.690;9.562;2022-11-20T05:12:53;5.70;99.90
48019;DHT22;33786;48.690;9.562;2022-11-20T05:15:20;5.70;99.90
48019;DHT22;33786;48.690;9.562;2022-11-20T05:17:47;5.70;99.90
48019;DHT22;33786;48.690;9.562;2022-11-20T05:20:14;5.60;99.90
48019;DHT22;33786;48.690;9.562;2022-11-20T05:22:41;5.70;99.90
48019;DHT22;33786;48.690;9.562;2022-11-20T05:25:08;5.70;99.90
48019;DHT22;33786;48.690;9.562;2022-11-20T05:27:34;5.70;99.90
48019;DHT22;33786;48.690;9.562;2022-11-20T05:30:01;5.70;99.90
48019;DHT22;33786;48.690;9.562;2022-11-20T05:32:28;5.60;99.90
48019;DHT22;33786;48.690;9.562;2022-11-20T05:34:55;5.60;99.90
48019;DHT22;33786;48.690;9.562;2022-11-20T05:37:21;5.60;99.90
48019;DHT22;33786;48.690;9.562;2022-11-20T05:39:48;5.80;99.90
48019;DHT22;33786;48.690;9.562;2022-11-20T05:42:15;5.80;99.90
48019;DHT22;33786;48.690;9.562;2022-11-20T05:45:00;5.90;99.90
48019;DHT22;33786;48.690;9.562;2022-11-20T05:47:27;5.90;99.90
48019;DHT22;33786;48.690;9.562;2022-11-20T05:49:54;6.00;99.90
48019;DHT22;33786;48.690;9.562;2022-11-20T05:52:21;6.00;99.90
48019;DHT22;33786;48.690;9.562;2022-11-20T05:54:47;6.00;99.90
48019;DHT22;33786;48.690;9.562;2022-11-20T05:57:14;6.00;99.90
48019;DHT22;33786;48.690;9.562;2022-11-20T05:59:41;6.00;99.90
48019;DHT22;33786;48.690;9.562;2022-11-20T06:02:07;6.10;99.90
48019;DHT22;33786;48.690;9.562;2022-11-20T06:04:34;6.10;99.90
48019;DHT22;33786;48.690;9.562;2022-11-20T06:07:01;6.10;99.90
48019;DHT22;33786;48.690;9.562;2022-11-20T06:09:28;6.20;99.90
48019;DHT22;33786;48.690;9.562;2022-11-20T06:11:54;6.10;99.90
48019;DHT22;33786;48.690;9.562;2022-11-20T06:14:21;6.10;99.90
48019;DHT22;33786;48.690;9.562;2022-11-20T06:16:48;6.20;99.90
48019;DHT22;33786;48.690;9.562;2022-11-20T06:19:15;6.10;99.90
48019;DHT22;33786;48.690;9.562;2022-11-20T06:21:41;6.10;99.90
48019;DHT22;33786;48.690;9.562;2022-11-20T06:24:09;6.10;99.90
48019;DHT22;33786;48.690;9.562;2022-11-20T06:26:35;6.10;99.90
48019;DHT22;33786;48.690;9.562;2022-11-20T06:29:02;6.10;99.90
48019;DHT22;33786;48.690;9.562;2022-11-20T06:31:29;6.10;99.90
48019;DHT22;33786;48.690;9.562;2022-11-20T06:33:56;6.10;99.90
48019;DHT22;33786;48.690;9.562;2022-11-20T06:36:23;6.20;99.90
48019;DHT22;33786;48.690;9.562;2022-11-20T06:38:49;6.20;99.90
48019;DHT22;33786;48.690;9.562;2022-11-20T06:41:17;6.30;99.90
48019;DHT22;33786;48.690;9.562;2022-11-20T06:43:44;6.30;99.90
48019;DHT22;33786;48.690;9.562;2022-11-20T06:46:11;6.30;99.90
48019;DHT22;33786;48.690;9.562;2022-11-20T06:48:39;6.40;99.90
48019;DHT22;33786;48.690;9.562;2022-11-20T06:51:06;6.40;99.90
48019;DHT22;33786;48.690;9.562;2022-11-20T06:53:33;6.40;99.90
48019;DHT22;33786;48.690;9.562;2022-11-20T06:56:00;6.30;99.90
48019;DHT22;33786;48.690;9.562;2022-11-20T06:58:27;6.40;99.90
48019;DHT22;33786;48.690;9.562;2022-11-20T07:00:57;6.30;99.90
48019;DHT22;33786;48.690;9.562;2022-11-20T07:03:24;6.30;99.90
48019;DHT22;33786;48.690;9.562;2022-11-20T07:05:51;6.30;99.90
48019;DHT22;33786;48.690;9.562;2022-11-20T07:08:18;6.30;99.90
48019;DHT22;33786;48.690;9.562;2022-11-20T07:10:44;6.30;99.90
48019;DHT22;33786;48.690;9.562;2022-11-20T07:13:11;6.20;99.90
48019;DHT22;33786;48.690;9.562;2022-11-20T07:15:38;6.30;99.90
48019;DHT22;33786;48.690;9.562;2022-11-20T07:18:05;6.20;99.90
48019;DHT22;33786;48.690;9.562;2022-11-20T07:20:32;6.20;99.90
48019;DHT22;33786;48.690;9.562;2022-11-20T07:22:58;6.30;99.90
48019;DHT22;33786;48.690;9.562;2022-11-20T07:25:26;6.30;99.90
48019;DHT22;33786;48.690;9.562;2022-11-20T07:27:57;6.30;99.90
48019;DHT22;33786;48.690;9.562;2022-11-20T07:30:24;6.30;99.90
48019;DHT22;33786;48.690;9.562;2022-11-20T07:32:52;6.30;99.90
48019;DHT22;33786;48.690;9.562;2022-11-20T07:35:19;6.30;99.90
48019;DHT22;33786;48.690;9.562;2022-11-20T07:37:46;6.30;99.90
48019;DHT22;33786;48.690;9.562;2022-11-20T07:40:13;6.40;99.90
48019;DHT22;33786;48.690;9.562;2022-11-20T07:42:50;6.40;99.90
48019;DHT22;33786;48.690;9.562;2022-11-20T07:45:17;6.40;99.90
48019;DHT22;33786;48.690;9.562;2022-11-20T07:47:44;6.30;99.90
48019;DHT22;33786;48.690;9.562;2022-11-20T07:50:11;6.30;99.90
48019;DHT22;33786;48.690;9.562;2022-11-20T07:52:38;6.40;99.90
48019;DHT22;33786;48.690;9.562;2022-11-20T07:55:05;6.50;99.90
48019;DHT22;33786;48.690;9.562;2022-11-20T07:57:32;6.40;99.90
48019;DHT22;33786;48.690;9.562;2022-11-20T07:59:59;6.50;99.90
48019;DHT22;33786;48.690;9.562;2022-11-20T08:02:26;6.50;99.90
48019;DHT22;33786;48.690;9.562;2022-11-20T08:04:52;6.50;99.90
48019;DHT22;33786;48.690;9.562;2022-11-20T08:07:19;6.60;99.90
48019;DHT22;33786;48.690;9.562;2022-11-20T08:09:46;6.50;99.90
48019;DHT22;33786;48.690;9.562;2022-11-20T08:12:19;6.60;99.90
48019;DHT22;33786;48.690;9.562;2022-11-20T08:15:05;6.60;99.90
48019;DHT22;33786;48.690;9.562;2022-11-20T08:17:38;6.70;99.90
48019;DHT22;33786;48.690;9.562;2022-11-20T08:20:05;6.80;99.90
48019;DHT22;33786;48.690;9.562;2022-11-20T08:22:32;6.90;99.90
48019;DHT22;33786;48.690;9.562;2022-11-20T08:24:58;7.00;99.90
48019;DHT22;33786;48.690;9.562;2022-11-20T08:27:25;7.00;99.90
48019;DHT22;33786;48.690;9.562;2022-11-20T08:29:52;6.90;99.90
48019;DHT22;33786;48.690;9.562;2022-11-20T08:32:18;7.00;99.90
48019;DHT22;33786;48.690;9.562;2022-11-20T08:34:45;7.10;99.90
48019;DHT22;33786;48.690;9.562;2022-11-20T08:37:12;7.00;99.90
48019;DHT22;33786;48.690;9.562;2022-11-20T08:39:39;6.90;99.90
48019;DHT22;33786;48.690;9.562;2022-11-20T08:42:06;7.00;99.90
48019;DHT22;33786;48.690;9.562;2022-11-20T08:44:34;6.90;99.90
48019;DHT22;33786;48.690;9.562;2022-11-20T08:47:00;7.00;99.90
48019;DHT22;33786;48.690;9.562;2022-11-20T08:49:27;7.00;99.90
48019;DHT22;33786;48.690;9.562;2022-11-20T08:51:54;6.90;99.90
48019;DHT22;33786;48.690;9.562;2022-11-20T08:54:21;7.00;99.90
48019;DHT22;33786;48.690;9.562;2022-11-20T08:56:49;7.00;99.90
48019;DHT22;33786;48.690;9.562;2022-11-20T08:59:15;7.10;99.90
48019;DHT22;33786;48.690;9.562;2022-11-20T09:02:02;7.00;99.90
48019;DHT22;33786;48.690;9.562;2022-11-20T09:04:29;7.10;99.90
48019;DHT22;33786;48.690;9.562;2022-11-20T09:06:55;7.10;99.90
48019;DHT22;33786;48.690;9.562;2022-11-20T09:09:22;7.10;99.90
48019;DHT22;33786;48.690;9.562;2022-11-20T09:11:50;7.10;99.90
48019;DHT22;33786;48.690;9.562;2022-11-20T09:14:16;7.10;99.90
48019;DHT22;33786;48.690;9.562;2022-11-20T09:16:44;7.20;99.90
48019;DHT22;33786;48.690;9.562;2022-11-20T09:19:11;7.10;99.90
48019;DHT22;33786;48.690;9.562;2022-11-20T09:21:58;7.10;99.90
48019;DHT22;33786;48.690;9.562;2022-11-20T09:24:26;7.00;99.90
48019;DHT22;33786;48.690;9.562;2022-11-20T09:26:53;7.10;99.90
48019;DHT22;33786;48.690;9.562;2022-11-20T09:29:20;7.10;99.90
48019;DHT22;33786;48.690;9.562;2022-11-20T09:31:47;7.10;99.90
48019;DHT22;33786;48.690;9.562;2022-11-20T09:34:13;7.20;99.90
48019;DHT22;33786;48.690;9.562;2022-11-20T09:36:42;7.30;99.90
48019;DHT22;33786;48.690;9.562;2022-11-20T09:39:08;7.30;99.90
48019;DHT22;33786;48.690;9.562;2022-11-20T09:49:36;7.60;99.90
48019;DHT22;33786;48.690;9.562;2022-11-20T09:52:19;7.50;99.90
48019;DHT22;33786;48.690;9.562;2022-11-20T09:54:48;7.30;99.90
48019;DHT22;33786;48.690;9.562;2022-11-20T09:57:20;7.30;99.90
48019;DHT22;33786;48.690;9.562;2022-11-20T10:02:37;7.30;99.90
48019;DHT22;33786;48.690;9.562;2022-11-20T10:05:04;7.50;99.90
48019;DHT22;33786;48.690;9.562;2022-11-20T10:07:39;7.30;99.90
48019;DHT22;33786;48.690;9.562;2022-11-20T10:10:15;7.20;99.90
48019;DHT22;33786;48.690;9.562;2022-11-20T10:12:57;7.30;99.90
48019;DHT22;33786;48.690;9.562;2022-11-20T10:25:59;7.30;99.90
48019;DHT22;33786;48.690;9.562;2022-11-20T10:31:00;7.20;99.90
48019;DHT22;33786;48.690;9.562;2022-11-20T10:33:33;7.30;99.90
48019;DHT22;33786;48.690;9.562;2022-11-20T10:36:29;7.30;99.90
48019;DHT22;33786;48.690;9.562;2022-11-20T10:38:59;7.20;99.90
48019;DHT22;33786;48.690;9.562;2022-11-20T10:41:28;7.20;99.90
48019;DHT22;33786;48.690;9.562;2022-11-20T10:46:32;7.20;99.90
48019;DHT22;33786;48.690;9.562;2022-11-20T10:49:00;7.20;99.90
48019;DHT22;33786;48.690;9.562;2022-11-20T10:51:38;7.10;99.90
48019;DHT22;33786;48.690;9.562;2022-11-20T10:56:55;7.10;99.90
48019;DHT22;33786;48.690;9.562;2022-11-20T11:01:53;7.10;99.90
48019;DHT22;33786;48.690;9.562;2022-11-20T11:04:32;7.00;99.90
48019;DHT22;33786;48.690;9.562;2022-11-20T11:07:06;6.80;99.90
48019;DHT22;33786;48.690;9.562;2022-11-20T11:09:36;6.90;99.90
48019;DHT22;33786;48.690;9.562;2022-11-20T11:12:07;6.90;99.90
48019;DHT22;33786;48.690;9.562;2022-11-20T11:14:45;6.80;99.90
48019;DHT22;33786;48.690;9.562;2022-11-20T11:22:43;6.70;99.90
48019;DHT22;33786;48.690;9.562;2022-11-20T11:25:18;6.70;99.90
48019;DHT22;33786;48.690;9.562;2022-11-20T11:27:46;6.60;99.90
48019;DHT22;33786;48.690;9.562;2022-11-20T11:30:14;6.70;99.90
48019;DHT22;33786;48.690;9.562;2022-11-20T11:32:41;6.80;99.90
48019;DHT22;33786;48.690;9.562;2022-11-20T11:35:27;6.80;99.90
48019;DHT22;33786;48.690;9.562;2022-11-20T11:38:01;6.80;99.90
48019;DHT22;33786;48.690;9.562;2022-11-20T11:40:28;6.80;99.90
48019;DHT22;33786;48.690;9.562;2022-11-20T11:42:57;6.80;99.90
48019;DHT22;33786;48.690;9.562;2022-11-20T11:45:25;6.90;99.90
48019;DHT22;33786;48.690;9.562;2022-11-20T11:47:52;6.90;99.90
48019;DHT22;33786;48.690;9.562;2022-11-20T11:50:21;7.00;99.90
48019;DHT22;33786;48.690;9.562;2022-11-20T11:58:09;7.30;99.90
48019;DHT22;33786;48.690;9.562;2022-11-20T12:00:36;7.40;99.90
48019;DHT22;33786;48.690;9.562;2022-11-20T12:03:14;7.60;99.90
48019;DHT22;33786;48.690;9.562;2022-11-20T12:05:43;7.60;99.90
48019;DHT22;33786;48.690;9.562;2022-11-20T12:08:24;7.70;99.90
48019;DHT22;33786;48.690;9.562;2022-11-20T12:10:57;7.80;99.90
48019;DHT22;33786;48.690;9.562;2022-11-20T12:15:54;8.10;99.90
48019;DHT22;33786;48.690;9.562;2022-11-20T12:18:21;8.10;99.90
48019;DHT22;33786;48.690;9.562;2022-11-20T12:21:01;8.10;99.90
48019;DHT22;33786;48.690;9.562;2022-11-20T12:23:44;8.10;99.90
48019;DHT22;33786;48.690;9.562;2022-11-20T12:34:16;8.00;99.90
48019;DHT22;33786;48.690;9.562;2022-11-20T12:36:57;7.90;99.90
48019;DHT22;33786;48.690;9.562;2022-11-20T12:39:35;7.90;99.90
48019;DHT22;33786;48.690;9.562;2022-11-20T12:45:09;8.00;99.90
48019;DHT22;33786;48.690;9.562;2022-11-20T12:52:57;8.30;99.90
48019;DHT22;33786;48.690;9.562;2022-11-20T12:58:01;8.50;99.90
48019;DHT22;33786;48.690;9.562;2022-11-20T13:00:31;8.60;99.90
48019;DHT22;33786;48.690;9.562;2022-11-20T13:08:23;8.90;99.90
48019;DHT22;33786;48.690;9.562;2022-11-20T13:16:07;8.80;99.90
48019;DHT22;33786;48.690;9.562;2022-11-20T13:18:39;8.50;99.90
48019;DHT22;33786;48.690;9.562;2022-11-20T13:21:19;8.40;99.90
48019;DHT22;33786;48.690;9.562;2022-11-20T13:23:47;8.40;99.90
48019;DHT22;33786;48.690;9.562;2022-11-20T13:26:22;8.40;99.90
48019;DHT22;33786;48.690;9.562;2022-11-20T13:29:00;8.10;99.90
48019;DHT22;33786;48.690;9.562;2022-11-20T13:31:32;8.10;99.90
48019;DHT22;33786;48.690;9.562;2022-11-20T13:34:01;8.00;99.90
48019;DHT22;33786;48.690;9.562;2022-11-20T13:36:29;7.90;99.90
48019;DHT22;33786;48.690;9.562;2022-11-20T13:38:56;7.90;99.90
48019;DHT22;33786;48.690;9.562;2022-11-20T13:41:33;7.80;99.90
48019;DHT22;33786;48.690;9.562;2022-11-20T13:44:13;7.80;99.90
48019;DHT22;33786;48.690;9.562;2022-11-20T13:46:41;7.90;99.90
48019;DHT22;33786;48.690;9.562;2022-11-20T13:49:15;7.90;99.90
48019;DHT22;33786;48.690;9.562;2022-11-20T13:59:24;7.90;99.90
48019;DHT22;33786;48.690;9.562;2022-11-20T14:01:56;8.00;99.90
48019;DHT22;33786;48.690;9.562;2022-11-20T14:04:26;8.00;99.90
48019;DHT22;33786;48.690;9.562;2022-11-20T14:06:54;8.00;99.90
48019;DHT22;33786;48.690;9.562;2022-11-20T14:09:31;8.00;99.90
48019;DHT22;33786;48.690;9.562;2022-11-20T14:11:58;7.80;99.90
48019;DHT22;33786;48.690;9.562;2022-11-20T14:14:26;7.80;99.90
48019;DHT22;33786;48.690;9.562;2022-11-20T14:17:05;7.90;99.90
48019;DHT22;33786;48.690;9.562;2022-11-20T14:19:32;7.90;99.90
48019;DHT22;33786;48.690;9.562;2022-11-20T14:27:36;7.80;99.90
48019;DHT22;33786;48.690;9.562;2022-11-20T14:30:03;7.70;99.90
48019;DHT22;33786;48.690;9.562;2022-11-20T14:32:31;7.90;99.90
48019;DHT22;33786;48.690;9.562;2022-11-20T14:34:59;8.10;99.90
48019;DHT22;33786;48.690;9.562;2022-11-20T14:37:29;8.10;99.90
48019;DHT22;33786;48.690;9.562;2022-11-20T14:39:57;8.00;99.90
48019;DHT22;33786;48.690;9.562;2022-11-20T14:42:25;8.00;99.90
48019;DHT22;33786;48.690;9.562;2022-11-20T14:44:54;7.80;99.90
48019;DHT22;33786;48.690;9.562;2022-11-20T14:47:22;7.70;99.90
48019;DHT22;33786;48.690;9.562;2022-11-20T14:49:50;7.50;99.90
48019;DHT22;33786;48.690;9.562;2022-11-20T14:52:18;7.40;99.90
48019;DHT22;33786;48.690;9.562;2022-11-20T14:54:52;7.40;99.90
48019;DHT22;33786;48.690;9.562;2022-11-20T14:59:49;7.20;99.90
48019;DHT22;33786;48.690;9.562;2022-11-20T15:02:16;7.10;99.90
48019;DHT22;33786;48.690;9.562;2022-11-20T15:04:50;7.10;99.90
48019;DHT22;33786;48.690;9.562;2022-11-20T15:07:24;7.10;99.90
48019;DHT22;33786;48.690;9.562;2022-11-20T15:10:08;7.10;99.90
48019;DHT22;33786;48.690;9.562;2022-11-20T15:12:39;7.10;99.90
48019;DHT22;33786;48.690;9.562;2022-11-20T15:15:08;7.10;99.90
48019;DHT22;33786;48.690;9.562;2022-11-20T15:17:38;7.10;99.90
48019;DHT22;33786;48.690;9.562;2022-11-20T15:20:12;7.00;99.90
48019;DHT22;33786;48.690;9.562;2022-11-20T15:22:39;6.90;99.90
48019;DHT22;33786;48.690;9.562;2022-11-20T15:25:16;7.10;99.90
48019;DHT22;33786;48.690;9.562;2022-11-20T15:27:44;7.00;99.90
48019;DHT22;33786;48.690;9.562;2022-11-20T15:30:18;7.00;99.90
48019;DHT22;33786;48.690;9.562;2022-11-20T15:32:45;7.00;99.90
48019;DHT22;33786;48.690;9.562;2022-11-20T15:35:13;7.00;99.90
48019;DHT22;33786;48.690;9.562;2022-11-20T15:37:40;7.10;99.90
48019;DHT22;33786;48.690;9.562;2022-11-20T15:40:07;7.00;99.90
48019;DHT22;33786;48.690;9.562;2022-11-20T15:42:34;7.00;99.90
48019;DHT22;33786;48.690;9.562;2022-11-20T15:45:03;7.00;99.90
48019;DHT22;33786;48.690;9.562;2022-11-20T15:47:31;6.90;99.90
48019;DHT22;33786;48.690;9.562;2022-11-20T15:49:59;6.90;99.90
48019;DHT22;33786;48.690;9.562;2022-11-20T15:52:25;6.90;99.90
48019;DHT22;33786;48.690;9.562;2022-11-20T15:55:01;6.90;99.90
48019;DHT22;33786;48.690;9.562;2022-11-20T15:57:35;6.90;99.90
48019;DHT22;33786;48.690;9.562;2022-11-20T16:00:01;6.80;99.90
48019;DHT22;33786;48.690;9.562;2022-11-20T16:02:28;6.80;99.90
48019;DHT22;33786;48.690;9.562;2022-11-20T16:04:55;6.70;99.90
48019;DHT22;33786;48.690;9.562;2022-11-20T16:07:22;6.70;99.90
48019;DHT22;33786;48.690;9.562;2022-11-20T16:09:48;6.50;99.90
48019;DHT22;33786;48.690;9.562;2022-11-20T16:12:15;6.50;99.90
48019;DHT22;33786;48.690;9.562;2022-11-20T16:15:02;6.40;99.90
48019;DHT22;33786;48.690;9.562;2022-11-20T16:17:47;6.20;99.90
48019;DHT22;33786;48.690;9.562;2022-11-20T16:20:15;6.20;99.90
48019;DHT22;33786;48.690;9.562;2022-11-20T16:22:41;6.00;99.90
48019;DHT22;33786;48.690;9.562;2022-11-20T16:25:08;6.00;99.90
48019;DHT22;33786;48.690;9.562;2022-11-20T16:27:35;5.80;99.90
48019;DHT22;33786;48.690;9.562;2022-11-20T16:30:01;5.70;99.90
48019;DHT22;33786;48.690;9.562;2022-11-20T16:32:28;5.60;99.90
48019;DHT22;33786;48.690;9.562;2022-11-20T16:34:55;5.50;99.90
48019;DHT22;33786;48.690;9.562;2022-11-20T16:37:22;5.40;99.90
48019;DHT22;33786;48.690;9.562;2022-11-20T16:39:49;5.30;99.90
48019;DHT22;33786;48.690;9.562;2022-11-20T16:42:15;5.30;99.90
48019;DHT22;33786;48.690;9.562;2022-11-20T16:44:43;5.20;99.90
48019;DHT22;33786;48.690;9.562;2022-11-20T16:47:11;5.20;99.90
48019;DHT22;33786;48.690;9.562;2022-11-20T16:49:38;5.10;99.90
48019;DHT22;33786;48.690;9.562;2022-11-20T16:52:05;5.40;99.90
48019;DHT22;33786;48.690;9.562;2022-11-20T16:54:31;5.10;99.90
48019;DHT22;33786;48.690;9.562;2022-11-20T16:56:58;5.10;99.90
48019;DHT22;33786;48.690;9.562;2022-11-20T16:59:25;5.00;99.90
48019;DHT22;33786;48.690;9.562;2022-11-20T17:01:52;4.90;99.90
48019;DHT22;33786;48.690;9.562;2022-11-20T17:04:18;4.90;99.90
48019;DHT22;33786;48.690;9.562;2022-11-20T17:06:45;4.90;99.90
48019;DHT22;33786;48.690;9.562;2022-11-20T17:09:13;4.80;99.90
48019;DHT22;33786;48.690;9.562;2022-11-20T17:11:40;4.80;99.90
48019;DHT22;33786;48.690;9.562;2022-11-20T17:14:06;4.70;99.90
48019;DHT22;33786;48.690;9.562;2022-11-20T17:16:42;4.70;99.90
48019;DHT22;33786;48.690;9.562;2022-11-20T17:19:12;4.70;99.90
48019;DHT22;33786;48.690;9.562;2022-11-20T17:21:49;4.70;99.90
48019;DHT22;33786;48.690;9.562;2022-11-20T17:24:33;4.70;99.90
48019;DHT22;33786;48.690;9.562;2022-11-20T17:27:02;4.70;99.90
48019;DHT22;33786;48.690;9.562;2022-11-20T17:29:29;4.70;99.90